| time (UTC) | temp F | wind direction | speed knots | gust knots | rain 1hr in | rain 24hr in | rain mn in | humidity % | barometer mb |
| 20260902200108 | 45 | 321 | 1.7 | 4.3 | 0.00 | 0.01 | 0.00 | 90 | 1015.7 |
| 20260902194600 | 46 | 310 | 1.7 | 5.2 | 0.00 | 0.01 | 0.00 | 90 | 1015.5 |
| 20260902193053 | 46 | 321 | 1.7 | 4.3 | 0.00 | 0.01 | 0.00 | 90 | 1015.5 |
| 20260902191559 | 46 | 304 | 2.6 | 7.0 | 0.00 | 0.01 | 0.00 | 91 | 1015.2 |
| 20260902190116 | 47 | 317 | 2.6 | 7.0 | 0.00 | 0.01 | 0.00 | 91 | 1015.1 |
| 20260902184558 | 46 | 313 | 2.6 | 6.1 | 0.00 | 0.02 | 0.00 | 92 | 1014.9 |
| 20260902183147 | 46 | 293 | 3.5 | 7.0 | 0.00 | 0.02 | 0.00 | 92 | 1014.8 |
| 20260902181602 | 46 | 293 | 3.5 | 7.0 | 0.00 | 0.02 | 0.00 | 92 | 1014.8 |
| 20260902180044 | 45 | 320 | 3.5 | 7.0 | 0.00 | 0.02 | 0.00 | 91 | 1014.9 |
| 20260902174543 | 46 | 303 | 2.6 | 6.1 | 0.00 | 0.02 | 0.00 | 91 | 1014.9 |
| 20260902173041 | 45 | 316 | 2.6 | 4.3 | 0.00 | 0.02 | 0.00 | 90 | 1014.8 |
| 20260902171549 | 45 | 310 | 0.9 | 2.6 | 0.00 | 0.02 | 0.00 | 90 | 1014.8 |
| 20260902170034 | 46 | 306 | 1.7 | 4.3 | 0.00 | 0.02 | 0.00 | 90 | 1014.9 |
| 20260902164532 | 46 | 301 | 2.6 | 6.1 | 0.00 | 0.02 | 0.00 | 90 | 1015.0 |
| 20260902163031 | 46 | 317 | 0.9 | 3.5 | 0.00 | 0.02 | 0.00 | 89 | 1014.9 |
| 20260902161536 | 46 | 308 | 1.7 | 4.3 | 0.00 | 0.02 | 0.00 | 88 | 1014.8 |
| 20260902160026 | 46 | 293 | 1.7 | 2.6 | 0.00 | 0.02 | 0.00 | 87 | 1014.7 |
| 20260902154532 | 47 | 293 | 0.9 | 2.6 | 0.00 | 0.02 | 0.00 | 86 | 1014.8 |
| 20260902153023 | 48 | 279 | 0.9 | 2.6 | 0.00 | 0.02 | 0.00 | 85 | 1014.7 |
| 20260902151517 | 49 | 279 | 1.7 | 2.6 | 0.00 | 0.02 | 0.00 | 83 | 1014.7 |
| 20260902144537 | 52 | 217 | 1.7 | 4.3 | 0.00 | 0.02 | 0.00 | 80 | 1014.6 |
| 20260902143036 | 53 | 233 | 1.7 | 6.1 | 0.00 | 0.02 | 0.00 | 80 | 1014.5 |
| 20260902141545 | 53 | 259 | 1.7 | 6.1 | 0.00 | 0.02 | 0.00 | 80 | 1014.5 |
| 20260902140031 | 53 | 292 | 2.6 | 7.0 | 0.00 | 0.02 | 0.00 | 81 | 1014.6 |
| 20260902134534 | 53 | 257 | 3.5 | 11.3 | 0.00 | 0.02 | 0.02 | 82 | 1014.8 |
| 20260902133032 | 53 | 252 | 3.5 | 10.4 | 0.00 | 0.02 | 0.02 | 83 | 1014.5 |
| 20260902131530 | 53 | 205 | 6.1 | 9.6 | 0.00 | 0.02 | 0.02 | 83 | 1014.3 |
| 20260902130033 | 54 | 231 | 5.2 | 9.6 | 0.00 | 0.02 | 0.02 | 84 | 1014.3 |
| 20260902124529 | 54 | 270 | 4.3 | 11.3 | 0.00 | 0.03 | 0.02 | 84 | 1014.1 |
| 20260902123028 | 54 | 269 | 7.0 | 12.2 | 0.00 | 0.03 | 0.02 | 87 | 1013.9 |
| 20260902121527 | 53 | 275 | 3.5 | 6.1 | 0.00 | 0.03 | 0.02 | 87 | 1013.7 |
| 20260902120027 | 53 | 275 | 1.7 | 3.5 | 0.00 | 0.03 | 0.02 | 86 | 1013.6 |
| 20260902114529 | 55 | 257 | 2.6 | 4.3 | 0.00 | 0.03 | 0.02 | 85 | 1013.3 |
| 20260902113030 | 55 | 299 | 0.9 | 4.3 | 0.00 | 0.03 | 0.02 | 85 | 1013.0 |
| 20260902110026 | 56 | 281 | 1.7 | 5.2 | 0.00 | 0.03 | 0.02 | 84 | 1013.2 |
| 20260902104532 | 56 | 281 | 2.6 | 5.2 | 0.00 | 0.03 | 0.02 | 84 | 1013.2 |
| 20260902103027 | 57 | 287 | 1.7 | 4.3 | 0.00 | 0.03 | 0.02 | 82 | 1013.3 |
| 20260902101524 | 58 | 298 | 3.5 | 7.0 | 0.00 | 0.03 | 0.02 | 82 | 1013.1 |
| 20260902100024 | 58 | 285 | 2.6 | 7.8 | 0.00 | 0.03 | 0.02 | 83 | 1013.0 |
| 20260902094525 | 58 | 279 | 2.6 | 7.0 | 0.00 | 0.03 | 0.02 | 84 | 1013.0 |
| 20260902093022 | 58 | 275 | 1.7 | 6.1 | 0.00 | 0.03 | 0.02 | 84 | 1012.8 |
| 20260902091523 | 59 | 277 | 1.7 | 6.1 | 0.00 | 0.03 | 0.02 | 84 | 1012.7 |
| 20260902090021 | 59 | 260 | 1.7 | 5.2 | 0.00 | 0.03 | 0.02 | 84 | 1012.7 |
| 20260902084529 | 59 | 284 | 2.6 | 5.2 | 0.00 | 0.03 | 0.02 | 85 | 1012.7 |
| 20260902083020 | 59 | 262 | 2.6 | 6.1 | 0.00 | 0.03 | 0.02 | 85 | 1012.6 |
| 20260902081520 | 60 | 288 | 2.6 | 6.1 | 0.00 | 0.03 | 0.02 | 85 | 1012.6 |
| 20260902080019 | 60 | 286 | 4.3 | 7.0 | 0.00 | 0.03 | 0.02 | 86 | 1012.6 |
| 20260902074519 | 60 | 269 | 2.6 | 7.0 | 0.01 | 0.03 | 0.02 | 85 | 1012.3 |
| 20260902073018 | 60 | 276 | 1.7 | 3.5 | 0.01 | 0.03 | 0.02 | 85 | 1012.2 |
| 20260902071518 | 61 | 273 | 1.7 | 5.2 | 0.01 | 0.03 | 0.02 | 82 | 1012.2 |
| 20260902070017 | 61 | 281 | 2.6 | 5.2 | 0.01 | 0.03 | 0.02 | 82 | 1012.3 |
| 20260902064523 | 62 | 310 | 1.7 | 3.5 | 0.00 | 0.02 | 0.01 | 82 | 1012.3 |
| 20260902063019 | 63 | 299 | 3.5 | 5.2 | 0.00 | 0.02 | 0.01 | 79 | 1012.7 |
| 20260902061519 | 64 | 305 | 0.9 | 7.0 | 0.00 | 0.02 | 0.01 | 74 | 1012.4 |
| 20260902060014 | 65 | 271 | 3.5 | 7.0 | 0.00 | 0.02 | 0.01 | 72 | 1012.7 |
| 20260902054517 | 66 | 317 | 3.5 | 7.0 | 0.00 | 0.02 | 0.01 | 70 | 1013.0 |
| 20260902053012 | 66 | 331 | 1.7 | 7.0 | 0.00 | 0.02 | 0.01 | 67 | 1012.6 |
| 20260902051513 | 67 | 298 | 4.3 | 8.7 | 0.00 | 0.02 | 0.01 | 67 | 1013.4 |
| 20260902050011 | 68 | 291 | 4.3 | 7.8 | 0.00 | 0.02 | 0.01 | 66 | 1013.2 |
| 20260902044514 | 69 | 269 | 0.9 | 7.0 | 0.00 | 0.02 | 0.01 | 62 | 1012.8 |
| 20260902043007 | 69 | 136 | 0.9 | 2.6 | 0.00 | 0.02 | 0.01 | 66 | 1012.8 |
| 20260902041506 | 68 | 236 | 0.9 | 6.1 | 0.00 | 0.02 | 0.01 | 66 | 1013.3 |
| 20260902040004 | 70 | 233 | 2.6 | 6.1 | 0.00 | 0.02 | 0.01 | 64 | 1013.4 |
| 20260902034614 | 69 | 276 | 2.6 | 8.7 | 0.00 | 0.02 | 0.01 | 66 | 1013.7 |
| 20260902033056 | 66 | 283 | 0.9 | 5.2 | 0.00 | 0.02 | 0.01 | 69 | 1014.2 |
| 20260902031555 | 67 | 284 | 1.7 | 7.0 | 0.00 | 0.02 | 0.01 | 67 | 1014.4 |
| 20260902024550 | 65 | 281 | 0.0 | 3.5 | 0.00 | 0.02 | 0.01 | 71 | 1015.0 |
| 20260902023052 | 65 | 289 | 0.9 | 4.3 | 0.00 | 0.02 | 0.01 | 72 | 1015.3 |
| 20260902021551 | 65 | 211 | 1.7 | 4.3 | 0.00 | 0.02 | 0.01 | 71 | 1015.4 |
| 20260902020045 | 65 | 360 | 0.0 | 3.5 | 0.00 | 0.02 | 0.01 | 72 | 1015.8 |
| 20260902014551 | 64 | 279 | 2.6 | 5.2 | 0.00 | 0.02 | 0.01 | 75 | 1016.1 |
| 20260902013052 | 64 | 142 | 0.9 | 5.2 | 0.00 | 0.02 | 0.01 | 73 | 1016.5 |
| 20260902011540 | 64 | 166 | 3.5 | 5.2 | 0.00 | 0.02 | 0.01 | 74 | 1016.5 |
| 20260902010049 | 63 | 283 | 2.6 | 7.8 | 0.00 | 0.02 | 0.01 | 76 | 1016.7 |
| 20260902004539 | 63 | 235 | 2.6 | 6.1 | 0.00 | 0.02 | 0.01 | 77 | 1016.7 |
| 20260902003111 | 63 | 230 | 3.5 | 7.0 | 0.00 | 0.02 | 0.01 | 75 | 1016.6 |
| 20260902001536 | 63 | 132 | 1.7 | 5.2 | 0.00 | 0.02 | 0.01 | 80 | 1016.5 |
| 20260902000034 | 62 | 146 | 3.5 | 6.1 | 0.00 | 0.02 | 0.01 | 79 | 1016.8 |
| 20260901234526 | 61 | 191 | 2.6 | 6.1 | 0.00 | 0.02 | 0.01 | 82 | 1016.9 |
| 20260901233021 | 60 | 176 | 2.6 | 4.3 | 0.00 | 0.02 | 0.01 | 87 | 1016.9 |
| 20260901231518 | 58 | 234 | 0.9 | 2.6 | 0.00 | 0.02 | 0.01 | 90 | 1017.0 |
| 20260901230016 | 56 | 248 | 1.7 | 4.3 | 0.00 | 0.02 | 0.01 | 92 | 1017.2 |
| 20260901224511 | 56 | 262 | 1.7 | 4.3 | 0.00 | 0.02 | 0.01 | 93 | 1017.0 |
| 20260901223008 | 54 | 215 | 0.9 | 3.5 | 0.00 | 0.02 | 0.01 | 94 | 1016.7 |
| 20260901221508 | 53 | 200 | 0.9 | 2.6 | 0.00 | 0.02 | 0.01 | 94 | 1016.6 |
| 20260901220101 | 53 | 205 | 0.9 | 4.3 | 0.00 | 0.02 | 0.01 | 94 | 1016.5 |
| 20260901214558 | 52 | 263 | 0.9 | 4.3 | 0.00 | 0.02 | 0.01 | 94 | 1016.3 |
| 20260901213056 | 50 | 222 | 2.6 | 6.1 | 0.00 | 0.02 | 0.01 | 95 | 1016.2 |
| 20260901211550 | 48 | 292 | 0.0 | 1.7 | 0.00 | 0.02 | 0.01 | 92 | 1015.8 |
| 20260901204545 | 48 | 292 | 0.0 | 0.9 | 0.00 | 0.02 | 0.01 | 92 | 1015.4 |
| 20260901203043 | 49 | 292 | 0.0 | 0.9 | 0.00 | 0.02 | 0.01 | 91 | 1015.4 |
| 20260901201540 | 50 | 248 | 0.0 | 0.9 | 0.00 | 0.02 | 0.01 | 92 | 1015.3 |